createdAt,value
2022-09-06T00:00:08.071Z,20.57
2022-09-06T00:02:36.152Z,20.56
2022-09-06T00:05:04.779Z,20.55
2022-09-06T00:07:31.983Z,20.42
2022-09-06T00:09:58.814Z,20.34
2022-09-06T00:12:26.105Z,20.17
2022-09-06T00:14:53.018Z,20.05
2022-09-06T00:17:20.465Z,20.18
2022-09-06T00:19:47.296Z,20.06
2022-09-06T00:22:14.154Z,20.12
2022-09-06T00:24:41.212Z,20.45
2022-09-06T00:27:08.926Z,20.38
2022-09-06T00:29:35.885Z,20.28
2022-09-06T00:32:03.127Z,20.26
2022-09-06T00:34:30.018Z,20.03
2022-09-06T00:36:57.029Z,20.11
2022-09-06T00:39:23.835Z,20.07
2022-09-06T00:41:50.754Z,20.09
2022-09-06T00:44:17.588Z,19.86
2022-09-06T00:46:46.652Z,20.03
2022-09-06T00:49:24.488Z,20.20
2022-09-06T00:51:55.683Z,20.04
2022-09-06T00:54:22.717Z,20.26
2022-09-06T00:56:50.445Z,20.19
2022-09-06T00:59:17.949Z,20.10
2022-09-06T01:01:44.760Z,20.18
2022-09-06T01:04:12.032Z,20.11
2022-09-06T01:07:03.260Z,20.17
2022-09-06T01:10:01.456Z,20.10
2022-09-06T01:12:42.554Z,19.84
2022-09-06T01:15:25.990Z,19.90
2022-09-06T01:17:52.627Z,19.74
2022-09-06T01:20:28.177Z,19.73
2022-09-06T01:23:13.655Z,19.56
2022-09-06T01:25:43.363Z,19.81
2022-09-06T01:28:28.943Z,19.69
2022-09-06T01:31:11.741Z,19.69
2022-09-06T01:33:46.280Z,19.49
2022-09-06T01:36:17.601Z,19.72
2022-09-06T01:38:44.553Z,19.61
2022-09-06T01:41:11.466Z,19.59
2022-09-06T01:43:41.420Z,19.67
2022-09-06T01:46:44.228Z,19.58
2022-09-06T01:49:40.072Z,19.71
2022-09-06T01:52:19.826Z,19.72
2022-09-06T01:54:49.399Z,19.39
2022-09-06T01:57:37.672Z,19.27
2022-09-06T02:00:19.730Z,19.28
2022-09-06T02:02:46.378Z,19.19
2022-09-06T02:05:38.254Z,19.23
2022-09-06T02:08:17.587Z,19.25
2022-09-06T02:11:04.345Z,19.47
2022-09-06T02:13:38.498Z,19.24
2022-09-06T02:16:07.676Z,18.98
2022-09-06T02:18:40.758Z,19.11
2022-09-06T02:21:10.589Z,19.22
2022-09-06T02:23:40.581Z,19.21
2022-09-06T02:26:13.337Z,18.98
2022-09-06T02:28:40.360Z,19.23
2022-09-06T02:31:18.507Z,19.18
2022-09-06T02:33:47.375Z,19.20
2022-09-06T02:36:16.011Z,19.23
2022-09-06T02:38:45.237Z,19.33
2022-09-06T02:41:14.296Z,19.15
2022-09-06T02:43:43.608Z,19.20
2022-09-06T02:46:10.656Z,19.17
2022-09-06T02:48:37.479Z,19.25
2022-09-06T02:51:05.763Z,19.23
2022-09-06T02:53:33.109Z,19.05
2022-09-06T02:56:00.125Z,18.93
2022-09-06T02:58:27.513Z,18.92
2022-09-06T03:00:54.403Z,18.56
2022-09-06T03:03:22.206Z,18.78
2022-09-06T03:05:53.541Z,18.61
2022-09-06T03:08:22.181Z,18.66
2022-09-06T03:10:53.980Z,18.70
2022-09-06T03:13:21.218Z,18.72
2022-09-06T03:15:59.735Z,18.56
2022-09-06T03:18:29.799Z,18.49
2022-09-06T03:20:57.725Z,18.75
2022-09-06T03:23:26.902Z,18.65
2022-09-06T03:25:53.906Z,18.56
2022-09-06T03:28:21.546Z,18.56
2022-09-06T03:30:50.241Z,18.50
2022-09-06T03:33:18.162Z,18.49
2022-09-06T03:35:52.625Z,18.77
2022-09-06T03:38:19.623Z,18.25
2022-09-06T03:40:49.715Z,18.02
2022-09-06T03:43:18.189Z,18.26
2022-09-06T03:45:47.027Z,18.35
2022-09-06T03:48:14.203Z,18.26
2022-09-06T03:50:45.813Z,18.14
2022-09-06T03:53:12.795Z,18.20
2022-09-06T03:55:39.627Z,18.45
2022-09-06T03:58:06.366Z,18.39
2022-09-06T04:00:33.768Z,18.34
2022-09-06T04:03:01.904Z,18.57
2022-09-06T04:05:28.908Z,18.64
2022-09-06T04:07:55.634Z,18.57
2022-09-06T04:10:22.409Z,18.39
2022-09-06T04:12:49.157Z,18.27
2022-09-06T04:15:16.029Z,18.22
2022-09-06T04:17:46.508Z,18.57
2022-09-06T04:20:15.096Z,18.41
2022-09-06T04:22:42.198Z,18.63
2022-09-06T04:25:09.588Z,18.33
2022-09-06T04:27:36.563Z,18.25
2022-09-06T04:30:03.887Z,18.14
2022-09-06T04:32:32.794Z,18.12
2022-09-06T04:34:59.554Z,18.04
2022-09-06T04:37:26.456Z,17.95
2022-09-06T04:39:53.350Z,17.60
2022-09-06T04:42:20.169Z,17.71
2022-09-06T04:44:47.110Z,18.42
2022-09-06T04:47:16.030Z,18.78
2022-09-06T04:49:43.318Z,19.18
2022-09-06T04:52:10.371Z,19.80
2022-09-06T04:54:37.373Z,20.45
2022-09-06T04:57:04.236Z,20.96
2022-09-06T04:59:30.958Z,21.53
2022-09-06T05:01:57.692Z,22.03
2022-09-06T05:04:25.056Z,22.62
2022-09-06T05:07:05.404Z,23.38
2022-09-06T05:09:33.334Z,24.03
2022-09-06T05:12:01.012Z,24.44
2022-09-06T05:14:28.894Z,24.77
2022-09-06T05:16:56.066Z,24.82
2022-09-06T05:19:23.271Z,25.27
2022-09-06T05:21:51.633Z,25.20
2022-09-06T05:24:18.541Z,25.57
2022-09-06T05:26:45.417Z,26.15
2022-09-06T05:29:12.347Z,26.42
2022-09-06T05:31:39.354Z,26.67
2022-09-06T05:34:06.195Z,27.01
2022-09-06T05:36:33.531Z,27.13
2022-09-06T05:39:00.437Z,26.99
2022-09-06T05:41:27.897Z,26.77
2022-09-06T05:43:55.056Z,26.19
2022-09-06T05:46:21.980Z,26.38
2022-09-06T05:48:58.138Z,27.35
2022-09-06T05:51:24.874Z,28.27
2022-09-06T05:53:51.647Z,29.32
2022-09-06T05:56:19.268Z,29.78
2022-09-06T05:58:46.182Z,30.10
2022-09-06T06:01:15.994Z,29.68
2022-09-06T06:03:43.624Z,28.53
2022-09-06T06:06:10.591Z,28.07
2022-09-06T06:08:37.404Z,27.50
2022-09-06T06:11:04.474Z,27.02
2022-09-06T06:13:35.113Z,26.75
2022-09-06T06:16:03.411Z,26.95
2022-09-06T06:18:30.236Z,26.71
2022-09-06T06:21:21.833Z,26.01
2022-09-06T06:23:58.332Z,26.31
2022-09-06T06:26:26.931Z,25.72
2022-09-06T06:28:54.160Z,25.72
2022-09-06T06:31:22.785Z,25.00
2022-09-06T06:33:50.479Z,25.21
2022-09-06T06:36:17.160Z,24.88
2022-09-06T06:38:46.799Z,24.85
2022-09-06T06:41:16.533Z,24.78
2022-09-06T06:43:43.537Z,25.07
2022-09-06T06:46:13.894Z,24.71
2022-09-06T06:48:41.818Z,25.00
2022-09-06T06:51:09.671Z,24.92
2022-09-06T06:53:37.079Z,25.05
2022-09-06T06:56:20.300Z,24.88
2022-09-06T06:58:49.119Z,25.57
2022-09-06T07:01:20.984Z,25.71
2022-09-06T07:03:48.836Z,26.54
2022-09-06T07:06:15.781Z,26.94
2022-09-06T07:08:44.235Z,27.35
2022-09-06T07:11:12.813Z,27.70
2022-09-06T07:13:39.760Z,28.51
2022-09-06T07:16:13.880Z,28.90
2022-09-06T07:18:42.475Z,27.98
2022-09-06T07:24:08.531Z,28.69
2022-09-06T07:26:38.548Z,28.81
2022-09-06T07:29:07.464Z,29.05
2022-09-06T07:34:22.474Z,29.23
2022-09-06T07:36:52.996Z,29.31
2022-09-06T07:39:19.824Z,29.12
2022-09-06T07:41:49.121Z,29.33
2022-09-06T07:44:16.279Z,29.56
2022-09-06T07:46:43.246Z,29.73
2022-09-06T07:49:10.031Z,29.94
2022-09-06T07:51:37.039Z,30.13
2022-09-06T07:54:29.384Z,30.43
2022-09-06T07:56:51.802Z,30.70
2022-09-06T07:59:18.791Z,30.95
2022-09-06T08:01:47.703Z,30.92
2022-09-06T08:04:14.959Z,31.22
2022-09-06T08:09:33.815Z,31.89
2022-09-06T08:12:06.983Z,32.17
2022-09-06T08:14:35.475Z,32.45
2022-09-06T08:20:44.562Z,32.84
2022-09-06T08:23:11.505Z,32.91
2022-09-06T08:25:38.401Z,32.75
2022-09-06T08:28:05.402Z,32.86
2022-09-06T08:30:33.688Z,32.45
2022-09-06T08:33:00.722Z,32.30
2022-09-06T08:35:27.888Z,32.47
2022-09-06T08:37:58.253Z,32.40
2022-09-06T08:40:25.725Z,32.06
2022-09-06T08:42:52.843Z,31.17
2022-09-06T08:45:20.036Z,31.47
2022-09-06T08:47:46.904Z,31.89
2022-09-06T08:50:13.731Z,32.16
2022-09-06T08:53:18.715Z,32.66
2022-09-06T08:55:55.847Z,33.09
2022-09-06T08:58:59.637Z,33.83
2022-09-06T09:01:36.482Z,34.40
2022-09-06T09:04:05.597Z,34.63
2022-09-06T09:06:33.263Z,35.14
2022-09-06T09:09:13.480Z,34.12
2022-09-06T09:11:46.207Z,34.41
2022-09-06T09:14:16.786Z,34.25
2022-09-06T09:16:44.304Z,34.71
2022-09-06T09:19:11.361Z,34.81
2022-09-06T09:21:40.383Z,35.17
2022-09-06T09:24:08.813Z,35.04
2022-09-06T09:26:51.218Z,35.28
2022-09-06T09:29:20.815Z,35.52
2022-09-06T09:31:53.818Z,36.20
2022-09-06T09:34:34.035Z,36.33
2022-09-06T09:40:18.049Z,36.44
2022-09-06T09:42:45.169Z,36.93
2022-09-06T09:45:21.299Z,36.07
2022-09-06T09:47:48.298Z,36.41
2022-09-06T09:50:30.431Z,35.53
2022-09-06T09:53:09.405Z,36.15
2022-09-06T09:55:36.985Z,36.42
2022-09-06T09:58:05.170Z,36.14
2022-09-06T10:00:36.446Z,36.47
2022-09-06T10:03:26.778Z,36.12
2022-09-06T10:06:03.451Z,36.69
2022-09-06T10:08:34.153Z,36.92
2022-09-06T10:11:01.424Z,37.18
2022-09-06T10:13:30.612Z,37.55
2022-09-06T10:16:00.185Z,37.25
2022-09-06T10:18:36.816Z,37.44
2022-09-06T10:21:13.205Z,38.09
2022-09-06T10:26:55.565Z,35.72
2022-09-06T10:29:40.077Z,35.83
2022-09-06T10:32:32.923Z,36.07
2022-09-06T10:35:19.040Z,34.90
2022-09-06T10:37:49.101Z,33.99
2022-09-06T10:40:29.450Z,34.65
2022-09-06T10:42:59.469Z,35.28
2022-09-06T10:46:05.345Z,35.68
2022-09-06T10:48:45.175Z,35.95
2022-09-06T10:51:40.114Z,35.19
2022-09-06T10:54:12.138Z,34.84
2022-09-06T10:56:44.975Z,35.35
2022-09-06T10:59:38.446Z,35.56
2022-09-06T11:02:34.008Z,35.58
2022-09-06T11:10:51.602Z,36.16
2022-09-06T11:13:20.514Z,36.59
2022-09-06T11:15:59.375Z,37.16
2022-09-06T11:18:49.706Z,37.34
2022-09-06T11:21:44.133Z,37.46
2022-09-06T11:24:15.517Z,36.77
2022-09-06T11:27:06.229Z,37.26
2022-09-06T11:29:35.800Z,36.96
2022-09-06T11:32:24.145Z,36.96
2022-09-06T11:34:57.034Z,37.27
2022-09-06T11:37:33.469Z,36.03
2022-09-06T11:42:52.042Z,35.70
2022-09-06T11:45:50.608Z,35.24
2022-09-06T11:48:23.769Z,35.90
2022-09-06T11:50:59.589Z,36.27
2022-09-06T11:53:31.282Z,35.67
2022-09-06T11:56:01.102Z,36.30
2022-09-06T11:58:53.484Z,36.19
2022-09-06T12:01:20.965Z,36.07
2022-09-06T12:06:37.025Z,35.79
2022-09-06T12:09:28.156Z,36.12
2022-09-06T12:11:56.802Z,36.74
2022-09-06T12:14:43.719Z,36.72
2022-09-06T12:17:11.641Z,37.01
2022-09-06T12:19:50.206Z,36.81
2022-09-06T12:22:40.548Z,36.86
2022-09-06T12:25:08.170Z,36.44
2022-09-06T12:27:40.408Z,36.34
2022-09-06T12:30:11.912Z,36.58
2022-09-06T12:32:44.192Z,36.76
2022-09-06T12:38:24.453Z,37.06
2022-09-06T12:40:56.553Z,36.75
2022-09-06T12:43:23.401Z,37.50
2022-09-06T12:45:52.648Z,37.77
2022-09-06T12:48:35.487Z,37.94
2022-09-06T12:51:02.664Z,38.27
2022-09-06T12:53:31.707Z,38.17
2022-09-06T12:56:06.675Z,38.10
2022-09-06T12:58:34.267Z,37.42
2022-09-06T13:01:26.245Z,38.06
2022-09-06T13:04:02.935Z,38.24
2022-09-06T13:06:34.072Z,37.86
2022-09-06T13:09:02.033Z,38.34
2022-09-06T13:11:38.825Z,38.45
2022-09-06T13:14:14.692Z,38.76
2022-09-06T13:16:51.163Z,38.82
2022-09-06T13:19:30.064Z,39.11
2022-09-06T13:22:00.489Z,39.09
2022-09-06T13:24:46.608Z,39.62
2022-09-06T13:27:27.866Z,39.48
2022-09-06T13:30:07.132Z,39.56
2022-09-06T13:32:35.706Z,39.40
2022-09-06T13:35:03.786Z,39.44
2022-09-06T13:37:34.021Z,39.35
2022-09-06T13:40:05.817Z,39.42
2022-09-06T13:42:34.062Z,39.22
2022-09-06T13:45:23.852Z,38.95
2022-09-06T13:47:50.659Z,39.28
2022-09-06T13:50:17.505Z,39.16
2022-09-06T13:52:44.507Z,39.05
2022-09-06T13:55:17.006Z,39.27
2022-09-06T13:57:44.530Z,37.53
2022-09-06T14:00:13.405Z,36.99
2022-09-06T14:02:41.222Z,37.04
2022-09-06T14:05:08.784Z,36.94
2022-09-06T14:07:35.785Z,37.02
2022-09-06T14:10:03.002Z,37.16
2022-09-06T14:12:29.896Z,37.11
2022-09-06T14:14:56.662Z,36.83
2022-09-06T14:17:23.499Z,36.50
2022-09-06T14:19:51.122Z,36.44
2022-09-06T14:22:17.893Z,35.49
2022-09-06T14:24:44.774Z,35.40
2022-09-06T14:27:11.806Z,35.89
2022-09-06T14:29:38.705Z,35.67
2022-09-06T14:32:05.807Z,35.68
2022-09-06T14:34:32.863Z,34.88
2022-09-06T14:37:00.401Z,35.05
2022-09-06T14:39:27.808Z,33.18
2022-09-06T14:41:54.755Z,33.69
2022-09-06T14:44:21.692Z,33.76
2022-09-06T14:46:49.309Z,34.18
2022-09-06T14:49:16.314Z,34.12
2022-09-06T14:51:43.588Z,34.10
2022-09-06T14:54:13.369Z,33.93
2022-09-06T14:56:42.093Z,34.24
2022-09-06T14:59:09.442Z,34.59
2022-09-06T15:01:38.759Z,34.46
2022-09-06T15:04:09.330Z,33.94
2022-09-06T15:06:39.318Z,33.56
2022-09-06T15:09:07.380Z,33.70
2022-09-06T15:11:45.845Z,33.74
2022-09-06T15:14:16.444Z,33.61
2022-09-06T15:16:44.310Z,33.80
2022-09-06T15:19:11.211Z,33.85
2022-09-06T15:21:38.113Z,33.79
2022-09-06T15:24:11.587Z,33.52
2022-09-06T15:26:39.191Z,33.55
2022-09-06T15:29:05.996Z,33.38
2022-09-06T15:31:36.189Z,33.63
2022-09-06T15:34:03.071Z,33.60
2022-09-06T15:36:30.374Z,33.80
2022-09-06T15:39:01.174Z,33.78
2022-09-06T15:41:31.201Z,33.85
2022-09-06T15:44:00.342Z,33.80
2022-09-06T15:46:33.121Z,33.96
2022-09-06T15:49:01.043Z,34.02
2022-09-06T15:51:27.913Z,34.10
2022-09-06T15:53:55.657Z,34.00
2022-09-06T15:56:22.467Z,33.99
2022-09-06T15:58:49.303Z,33.98
2022-09-06T16:01:19.442Z,33.95
2022-09-06T16:03:49.246Z,33.75
2022-09-06T16:08:56.677Z,33.55
2022-09-06T16:11:23.453Z,33.70
2022-09-06T16:13:50.465Z,33.57
2022-09-06T16:16:17.787Z,33.50
2022-09-06T16:18:48.987Z,33.52
2022-09-06T16:21:21.983Z,33.43
2022-09-06T16:23:51.528Z,33.53
2022-09-06T16:26:21.522Z,33.49
2022-09-06T16:28:50.891Z,33.34
2022-09-06T16:31:19.084Z,33.24
2022-09-06T16:33:46.183Z,33.21
2022-09-06T16:36:14.153Z,33.02
2022-09-06T16:38:42.077Z,32.93
2022-09-06T16:41:10.735Z,32.89
2022-09-06T16:43:37.503Z,32.78
2022-09-06T16:46:05.331Z,32.78
2022-09-06T16:48:32.861Z,32.40
2022-09-06T16:51:12.297Z,32.28
2022-09-06T16:53:41.688Z,32.43
2022-09-06T16:56:09.921Z,32.33
2022-09-06T16:58:37.164Z,32.01
2022-09-06T17:01:04.081Z,31.93
2022-09-06T17:03:31.548Z,31.93
2022-09-06T17:05:58.480Z,31.83
2022-09-06T17:08:25.399Z,31.69
2022-09-06T17:10:52.395Z,31.56
2022-09-06T17:13:19.222Z,31.36
2022-09-06T17:16:14.261Z,31.02
2022-09-06T17:18:41.191Z,30.77
2022-09-06T17:21:08.591Z,30.91
2022-09-06T17:23:36.610Z,30.62
2022-09-06T17:26:04.295Z,30.47
2022-09-06T17:28:35.744Z,30.20
2022-09-06T17:31:03.958Z,29.92
2022-09-06T17:33:32.144Z,29.89
2022-09-06T17:36:27.029Z,29.71
2022-09-06T17:39:00.979Z,29.89
2022-09-06T17:41:31.234Z,29.54
2022-09-06T17:43:58.907Z,29.47
2022-09-06T17:46:29.092Z,29.51
2022-09-06T17:48:56.892Z,29.47
2022-09-06T17:51:24.716Z,29.22
2022-09-06T17:53:53.154Z,28.89
2022-09-06T17:56:20.838Z,27.99
2022-09-06T17:58:59.628Z,26.94
2022-09-06T18:01:29.724Z,27.78
2022-09-06T18:03:57.534Z,27.96
2022-09-06T18:06:26.604Z,28.19
2022-09-06T18:08:56.155Z,28.10
2022-09-06T18:11:26.821Z,28.00
2022-09-06T18:13:59.194Z,27.40
2022-09-06T18:16:26.887Z,27.23
2022-09-06T18:18:56.437Z,27.21
2022-09-06T18:21:24.446Z,27.32
2022-09-06T18:23:51.523Z,27.21
2022-09-06T18:26:18.730Z,26.72
2022-09-06T18:28:45.794Z,26.60
2022-09-06T18:31:18.350Z,26.56
2022-09-06T18:33:45.332Z,26.75
2022-09-06T18:36:13.362Z,26.90
2022-09-06T18:38:41.262Z,26.83
2022-09-06T18:41:09.970Z,27.01
2022-09-06T18:43:40.444Z,26.89
2022-09-06T18:46:09.991Z,26.91
2022-09-06T18:48:37.645Z,26.93
2022-09-06T18:51:11.625Z,26.98
2022-09-06T18:53:43.985Z,26.98
2022-09-06T18:56:13.308Z,26.86
2022-09-06T18:58:43.061Z,27.04
2022-09-06T19:01:15.221Z,26.66
2022-09-06T19:03:42.696Z,27.00
2022-09-06T19:06:15.297Z,27.17
2022-09-06T19:08:42.901Z,26.89
2022-09-06T19:11:19.871Z,26.67
2022-09-06T19:13:50.654Z,26.71
2022-09-06T19:16:19.309Z,26.54
2022-09-06T19:18:46.626Z,26.45
2022-09-06T19:21:22.171Z,26.64
2022-09-06T19:23:57.434Z,26.58
2022-09-06T19:26:25.910Z,26.59
2022-09-06T19:28:58.698Z,26.59
2022-09-06T19:31:30.746Z,26.48
2022-09-06T19:33:59.523Z,26.17
2022-09-06T19:36:29.036Z,26.29
2022-09-06T19:39:03.494Z,26.22
2022-09-06T19:41:32.791Z,26.17
2022-09-06T19:44:00.523Z,26.30
2022-09-06T19:46:28.074Z,26.19
2022-09-06T19:48:58.346Z,26.33
2022-09-06T19:51:25.898Z,25.81
2022-09-06T19:53:57.617Z,25.77
2022-09-06T19:56:27.590Z,25.66
2022-09-06T19:58:56.284Z,25.18
2022-09-06T20:01:25.329Z,24.15
2022-09-06T20:03:53.031Z,23.11
2022-09-06T20:06:19.990Z,23.20
2022-09-06T20:08:53.464Z,22.41
2022-09-06T20:11:22.404Z,22.42
2022-09-06T20:13:49.608Z,22.65
2022-09-06T20:16:20.489Z,23.47
2022-09-06T20:18:47.947Z,23.16
2022-09-06T20:21:15.180Z,23.12
2022-09-06T20:23:41.931Z,23.26
2022-09-06T20:26:11.759Z,23.18
2022-09-06T20:28:38.559Z,23.62
2022-09-06T20:31:08.564Z,23.52
2022-09-06T20:33:36.567Z,23.74
2022-09-06T20:36:07.096Z,23.79
2022-09-06T20:38:36.345Z,23.90
2022-09-06T20:41:17.145Z,23.99
2022-09-06T20:43:44.783Z,24.06
2022-09-06T20:46:15.108Z,24.11
2022-09-06T20:48:44.922Z,24.25
2022-09-06T20:51:19.456Z,24.37
2022-09-06T20:53:48.945Z,24.18
2022-09-06T20:56:18.339Z,24.41
2022-09-06T20:58:56.083Z,24.41
2022-09-06T21:01:25.384Z,24.56
2022-09-06T21:03:54.818Z,24.36
2022-09-06T21:06:22.929Z,23.82
2022-09-06T21:08:50.547Z,24.13
2022-09-06T21:11:18.178Z,24.07
2022-09-06T21:13:48.696Z,24.25
2022-09-06T21:16:16.827Z,24.43
2022-09-06T21:18:45.128Z,23.96
2022-09-06T21:21:12.861Z,23.99
2022-09-06T21:23:39.703Z,23.42
2022-09-06T21:26:08.612Z,23.66
2022-09-06T21:28:38.629Z,24.01
2022-09-06T21:31:15.095Z,24.11
2022-09-06T21:33:46.419Z,24.02
2022-09-06T21:36:16.541Z,24.13
2022-09-06T21:38:45.843Z,24.12
2022-09-06T21:41:14.152Z,24.23
2022-09-06T21:43:41.728Z,24.43
2022-09-06T21:46:11.346Z,24.27
2022-09-06T21:48:39.252Z,23.95
2022-09-06T21:51:10.641Z,23.85
2022-09-06T21:53:37.680Z,23.60
2022-09-06T21:56:05.705Z,23.75
2022-09-06T21:58:33.434Z,23.86
2022-09-06T22:01:02.196Z,23.60
2022-09-06T22:03:32.636Z,23.85
2022-09-06T22:06:00.053Z,23.76
2022-09-06T22:08:26.998Z,23.52
2022-09-06T22:10:54.210Z,23.64
2022-09-06T22:13:21.070Z,23.64
2022-09-06T22:15:47.964Z,23.45
2022-09-06T22:18:16.051Z,23.70
2022-09-06T22:20:46.630Z,23.76
2022-09-06T22:23:20.126Z,23.65
2022-09-06T22:25:47.832Z,23.35
2022-09-06T22:28:18.879Z,23.40
2022-09-06T22:30:46.093Z,23.48
2022-09-06T22:33:13.114Z,23.33
2022-09-06T22:35:39.978Z,23.32
2022-09-06T22:38:07.812Z,23.22
2022-09-06T22:40:34.605Z,23.33
2022-09-06T22:43:02.621Z,23.30
2022-09-06T22:45:29.947Z,23.45
2022-09-06T22:47:56.789Z,23.22
2022-09-06T22:50:23.615Z,23.35
2022-09-06T22:52:50.420Z,23.19
2022-09-06T22:55:17.465Z,23.28
2022-09-06T22:57:44.366Z,23.11
2022-09-06T23:00:12.086Z,23.12
2022-09-06T23:02:38.826Z,23.37
2022-09-06T23:05:05.823Z,23.33
2022-09-06T23:07:33.229Z,23.36
2022-09-06T23:10:00.062Z,23.35
2022-09-06T23:12:28.008Z,23.22
2022-09-06T23:14:54.978Z,23.24
2022-09-06T23:17:21.996Z,23.27
2022-09-06T23:19:48.817Z,23.37
2022-09-06T23:22:15.562Z,23.44
2022-09-06T23:24:42.912Z,23.17
2022-09-06T23:27:09.825Z,23.18
2022-09-06T23:29:36.762Z,23.19
2022-09-06T23:32:03.516Z,22.99
2022-09-06T23:34:30.252Z,23.12
2022-09-06T23:37:00.177Z,23.05
2022-09-06T23:39:28.413Z,22.95
2022-09-06T23:41:56.151Z,22.90
2022-09-06T23:44:23.534Z,22.70
2022-09-06T23:46:50.777Z,22.84
2022-09-06T23:49:17.682Z,23.06
2022-09-06T23:51:44.644Z,22.76
2022-09-06T23:54:11.478Z,23.06
2022-09-06T23:56:38.353Z,22.94
2022-09-06T23:59:05.132Z,22.96
